Time;durP1;ratioP1;P1;durP2;ratioP2;P2;SDS_P1;SDS_P2;PMS_P1;PMS_P2;Temp;Humidity;BMP_temperature;BMP_pressure;BME280_temperature;BME280_humidity;BME280_pressure;Samples;Min_cycle;Max_cycle;Signal;HPM_P1;HPM_P2
2022/03/12 00:00:07;;;;;;;19.63;9.00;;;3.70;99.90;;;;;;4896367;29;20426;-51
2022/03/12 00:02:34;;;;;;;17.93;8.93;;;3.80;99.90;;;;;;4896356;29;20400;-51
2022/03/12 00:05:00;;;;;;;16.20;8.10;;;3.70;99.90;;;;;;4896037;29;20540;-51
2022/03/12 00:07:27;;;;;;;15.00;9.17;;;3.60;99.90;;;;;;4896021;29;20743;-51
2022/03/12 00:09:54;;;;;;;15.73;9.17;;;3.60;99.90;;;;;;4896165;29;20946;-51
2022/03/12 00:12:21;;;;;;;20.63;9.27;;;3.60;99.90;;;;;;4896084;29;20405;-52
2022/03/12 00:14:48;;;;;;;15.90;8.70;;;3.50;99.90;;;;;;4896151;29;20899;-51
2022/03/12 00:17:15;;;;;;;16.83;8.07;;;3.60;99.90;;;;;;4896039;29;20427;-52
2022/03/12 00:19:41;;;;;;;23.57;9.10;;;3.60;99.90;;;;;;4895645;29;20454;-52
2022/03/12 00:22:09;;;;;;;13.70;8.20;;;3.50;99.90;;;;;;4896281;29;20867;-52
2022/03/12 00:24:38;;;;;;;17.30;9.60;;;3.50;99.90;;;;;;4896251;29;20192;-52
2022/03/12 00:27:07;;;;;;;15.70;8.30;;;3.50;99.90;;;;;;4895888;29;20420;-51
2022/03/12 00:29:34;;;;;;;19.80;9.60;;;3.50;99.90;;;;;;4896056;29;20408;-51
2022/03/12 00:32:00;;;;;;;16.00;8.17;;;3.40;99.90;;;;;;4896050;29;20420;-51
2022/03/12 00:34:26;;;;;;;19.47;9.43;;;3.40;99.90;;;;;;4896006;29;21009;-52
2022/03/12 00:36:51;;;;;;;14.83;8.57;;;3.30;99.90;;;;;;4895840;29;20440;-51
2022/03/12 00:39:17;;;;;;;19.50;10.13;;;3.40;99.90;;;;;;4895678;29;20168;-51
2022/03/12 00:41:43;;;;;;;18.60;9.47;;;3.30;99.90;;;;;;4895903;29;20203;-51
2022/03/12 00:44:12;;;;;;;23.63;8.33;;;3.20;99.90;;;;;;4895781;29;20223;-51
2022/03/12 00:46:38;;;;;;;16.67;8.50;;;3.20;99.90;;;;;;4895852;29;20921;-51
2022/03/12 00:49:03;;;;;;;18.87;8.90;;;3.20;99.90;;;;;;4895870;29;20420;-51
2022/03/12 00:51:29;;;;;;;17.03;9.30;;;3.20;99.90;;;;;;4895546;29;20199;-52
2022/03/12 00:53:54;;;;;;;19.03;8.40;;;3.20;99.90;;;;;;4895837;29;20172;-51
2022/03/12 00:56:20;;;;;;;17.50;9.60;;;3.20;99.90;;;;;;4895678;29;20621;-52
2022/03/12 00:58:47;;;;;;;12.60;7.97;;;3.20;99.90;;;;;;4895425;29;20240;-52
2022/03/12 01:01:13;;;;;;;13.63;8.50;;;3.30;99.90;;;;;;4891915;29;20264;-52
2022/03/12 01:03:40;;;;;;;18.30;9.10;;;3.20;99.90;;;;;;4898178;29;20471;-51
2022/03/12 01:06:06;;;;;;;14.83;8.87;;;3.10;99.90;;;;;;4895571;29;21348;-51
2022/03/12 01:08:35;;;;;;;15.60;9.20;;;3.10;99.90;;;;;;4874440;29;20437;-51
2022/03/12 01:11:04;;;;;;;14.53;8.47;;;3.20;99.90;;;;;;4893763;29;20437;-51
2022/03/12 01:13:30;;;;;;;16.17;8.80;;;3.10;99.90;;;;;;4886917;29;20529;-51
2022/03/12 01:15:56;;;;;;;15.50;8.80;;;3.00;99.90;;;;;;4895463;29;20417;-52
2022/03/12 01:18:23;;;;;;;18.00;8.77;;;3.00;99.90;;;;;;4898621;29;20431;-51
2022/03/12 01:20:50;;;;;;;16.33;8.27;;;3.00;99.90;;;;;;4899223;29;20428;-51
2022/03/12 01:23:17;;;;;;;17.23;9.20;;;3.00;99.90;;;;;;4899065;29;20468;-55
2022/03/12 01:25:45;;;;;;;19.23;9.50;;;3.00;99.90;;;;;;4899057;29;20950;-51
2022/03/12 01:28:12;;;;;;;18.30;9.10;;;3.00;99.90;;;;;;4899244;29;20428;-51
2022/03/12 01:30:41;;;;;;;21.77;9.63;;;2.90;99.90;;;;;;4899277;29;20412;-51
2022/03/12 01:33:07;;;;;;;14.57;9.00;;;2.80;99.90;;;;;;4899145;29;20813;-51
2022/03/12 01:35:32;;;;;;;14.50;8.43;;;2.90;99.90;;;;;;4898850;29;20562;-52
2022/03/12 01:38:00;;;;;;;17.83;9.17;;;2.80;99.90;;;;;;4899038;29;20498;-51
2022/03/12 01:40:25;;;;;;;15.47;8.50;;;2.80;99.90;;;;;;4899094;29;20283;-51
2022/03/12 01:42:52;;;;;;;15.20;8.30;;;2.80;99.90;;;;;;4894233;29;20567;-52
2022/03/12 01:45:29;;;;;;;14.43;8.70;;;2.80;99.90;;;;;;4895750;29;20196;-51
2022/03/12 01:47:56;;;;;;;18.57;7.93;;;2.80;99.90;;;;;;4899095;29;20400;-51
2022/03/12 01:50:25;;;;;;;14.93;8.57;;;2.70;99.90;;;;;;4898739;29;20400;-54
2022/03/12 01:52:58;;;;;;;26.90;8.90;;;2.70;99.90;;;;;;4898463;29;20455;-51
2022/03/12 01:55:23;;;;;;;14.87;7.80;;;2.60;99.90;;;;;;4898772;29;20408;-51
2022/03/12 01:57:49;;;;;;;19.13;9.50;;;2.70;99.90;;;;;;4898967;29;20423;-55
2022/03/12 02:00:25;;;;;;;18.77;9.50;;;2.60;99.90;;;;;;4896790;29;20223;-51
2022/03/12 02:02:54;;;;;;;15.23;8.50;;;2.70;99.90;;;;;;4898770;29;20223;-52
2022/03/12 02:05:27;;;;;;;17.80;8.50;;;2.70;99.90;;;;;;4898494;29;20893;-56
2022/03/12 02:07:55;;;;;;;16.90;8.20;;;2.70;99.90;;;;;;4898152;29;20399;-51
2022/03/12 02:10:22;;;;;;;17.40;9.13;;;2.70;99.90;;;;;;4898635;29;20427;-51
2022/03/12 02:12:47;;;;;;;14.70;8.70;;;2.60;99.90;;;;;;4898414;29;20867;-52
2022/03/12 02:15:17;;;;;;;18.63;9.37;;;2.60;99.90;;;;;;4898210;29;20419;-52
2022/03/12 02:17:43;;;;;;;15.17;9.20;;;2.50;99.90;;;;;;4898341;29;20194;-51
2022/03/12 02:20:08;;;;;;;18.37;9.00;;;2.50;99.90;;;;;;4897964;29;20416;-52
2022/03/12 02:22:34;;;;;;;15.90;8.60;;;2.50;99.90;;;;;;4898302;29;20184;-52
2022/03/12 02:24:59;;;;;;;18.40;8.60;;;2.50;99.90;;;;;;4898160;29;20188;-52
2022/03/12 02:27:25;;;;;;;17.17;8.30;;;2.50;99.90;;;;;;4898060;29;20187;-52
2022/03/12 02:29:52;;;;;;;19.80;8.83;;;2.40;99.90;;;;;;4897241;29;20180;-51
2022/03/12 02:32:18;;;;;;;13.77;8.23;;;2.30;99.90;;;;;;4897900;29;20204;-52
2022/03/12 02:34:48;;;;;;;20.33;8.80;;;2.30;99.90;;;;;;4897727;29;20547;-51
2022/03/12 02:37:33;;;;;;;17.27;7.93;;;2.30;99.90;;;;;;4898073;29;20484;-51
2022/03/12 02:40:06;;;;;;;14.40;8.37;;;2.30;99.90;;;;;;4898162;29;20886;-52
2022/03/12 02:42:36;;;;;;;14.83;8.00;;;2.30;99.90;;;;;;4897670;29;20930;-52
2022/03/12 02:45:07;;;;;;;17.67;8.00;;;2.20;99.90;;;;;;4898249;29;20413;-53
2022/03/12 02:47:35;;;;;;;17.17;8.03;;;2.20;99.90;;;;;;4898215;29;20404;-52
2022/03/12 02:50:06;;;;;;;14.30;8.03;;;2.20;99.90;;;;;;4897569;29;20443;-51
2022/03/12 02:52:33;;;;;;;18.03;8.10;;;2.20;99.90;;;;;;4897667;29;20439;-51
2022/03/12 02:55:00;;;;;;;15.73;9.03;;;2.30;99.90;;;;;;4897720;29;20868;-51
2022/03/12 02:57:28;;;;;;;17.57;8.87;;;2.20;99.90;;;;;;4897459;29;20424;-51
2022/03/12 02:59:55;;;;;;;16.07;9.00;;;2.10;99.90;;;;;;4897622;29;20454;-52
2022/03/12 03:02:25;;;;;;;19.57;10.00;;;2.10;99.90;;;;;;4897419;29;20916;-51
2022/03/12 03:04:51;;;;;;;17.37;8.37;;;2.00;99.90;;;;;;4897012;29;20953;-51
2022/03/12 03:07:17;;;;;;;16.60;8.10;;;2.00;99.90;;;;;;4897576;29;20428;-51
2022/03/12 03:09:43;;;;;;;17.93;9.33;;;2.00;99.90;;;;;;4897266;29;20426;-51
2022/03/12 03:12:11;;;;;;;13.10;8.17;;;2.00;99.90;;;;;;4897625;29;20208;-51
2022/03/12 03:14:41;;;;;;;14.53;8.03;;;2.00;99.90;;;;;;4897344;29;20256;-51
2022/03/12 03:17:11;;;;;;;16.63;8.37;;;2.00;99.90;;;;;;4897150;29;20422;-51
2022/03/12 03:19:39;;;;;;;16.93;9.10;;;1.90;99.90;;;;;;4897093;29;20428;-51
2022/03/12 03:22:05;;;;;;;15.60;7.90;;;1.90;99.90;;;;;;4896984;29;20953;-51
2022/03/12 03:24:31;;;;;;;17.43;7.90;;;1.90;99.90;;;;;;4896108;29;20471;-51
2022/03/12 03:26:58;;;;;;;14.50;8.07;;;1.90;99.90;;;;;;4896573;29;20464;-51
2022/03/12 03:29:27;;;;;;;16.90;8.27;;;1.90;99.90;;;;;;4895791;29;20184;-51
2022/03/12 03:31:54;;;;;;;24.70;8.87;;;1.80;99.90;;;;;;4890335;29;20420;-51
2022/03/12 03:34:20;;;;;;;13.67;6.93;;;1.90;99.90;;;;;;4896172;29;20487;-52
2022/03/12 03:36:47;;;;;;;14.33;7.70;;;1.80;99.90;;;;;;4896950;29;20478;-51
2022/03/12 03:39:14;;;;;;;14.83;8.30;;;1.80;99.90;;;;;;4897061;29;20819;-51
2022/03/12 03:41:40;;;;;;;12.37;7.30;;;1.80;99.90;;;;;;4896925;29;20466;-51
2022/03/12 03:44:06;;;;;;;15.57;8.53;;;1.80;99.90;;;;;;4895859;29;20503;-51
2022/03/12 03:46:33;;;;;;;15.10;7.93;;;1.80;99.90;;;;;;4895984;29;20623;-51
2022/03/12 03:48:58;;;;;;;19.60;8.70;;;1.80;99.90;;;;;;4896558;29;20527;-51
2022/03/12 03:51:24;;;;;;;14.80;7.67;;;1.80;99.90;;;;;;4896502;29;20948;-51
2022/03/12 03:53:50;;;;;;;14.40;8.10;;;1.80;99.90;;;;;;4896276;29;20239;-51
2022/03/12 03:56:18;;;;;;;19.97;8.20;;;1.70;99.90;;;;;;4895450;29;20627;-51
2022/03/12 03:58:44;;;;;;;12.83;7.60;;;1.70;99.90;;;;;;4895788;29;20832;-51
2022/03/12 04:01:12;;;;;;;24.90;8.30;;;1.70;99.90;;;;;;4891240;29;20443;-51
2022/03/12 04:03:42;;;;;;;15.00;7.60;;;1.70;99.90;;;;;;4895347;29;20992;-52
2022/03/12 04:06:08;;;;;;;16.90;7.93;;;1.70;99.90;;;;;;4895484;29;20475;-51
2022/03/12 04:08:34;;;;;;;14.93;8.20;;;1.60;99.90;;;;;;4895178;29;20436;-51
2022/03/12 04:11:04;;;;;;;14.80;7.93;;;1.50;99.90;;;;;;4895244;29;20192;-51
2022/03/12 04:13:30;;;;;;;13.53;7.13;;;1.50;99.90;;;;;;4891911;29;20456;-52
2022/03/12 04:15:58;;;;;;;17.53;8.50;;;1.50;99.90;;;;;;4895432;29;20553;-51
2022/03/12 04:18:23;;;;;;;16.70;8.50;;;1.50;99.90;;;;;;4871727;29;20455;-51
2022/03/12 04:20:50;;;;;;;16.30;8.57;;;1.50;99.90;;;;;;4895330;29;20459;-51
2022/03/12 04:23:21;;;;;;;13.13;7.57;;;1.50;99.90;;;;;;4895116;29;20700;-51
2022/03/12 04:25:48;;;;;;;17.33;8.03;;;1.50;99.90;;;;;;4891726;29;20428;-51
2022/03/12 04:28:14;;;;;;;22.23;8.73;;;1.50;99.90;;;;;;4894951;29;20425;-51
2022/03/12 04:30:40;;;;;;;17.07;8.00;;;1.50;99.90;;;;;;4895089;29;20467;-51
2022/03/12 04:33:08;;;;;;;18.73;8.80;;;1.50;99.90;;;;;;4894944;29;20451;-51
2022/03/12 04:35:34;;;;;;;15.03;7.93;;;1.40;99.90;;;;;;4878611;29;20263;-51
2022/03/12 04:38:01;;;;;;;15.37;7.67;;;1.40;99.90;;;;;;4894072;29;20432;-51
2022/03/12 04:40:27;;;;;;;17.17;8.07;;;1.40;99.90;;;;;;4894894;29;20487;-52
2022/03/12 04:42:53;;;;;;;17.83;8.23;;;1.40;99.90;;;;;;4894936;29;20970;-51
2022/03/12 04:45:23;;;;;;;13.40;7.53;;;1.40;99.90;;;;;;4895032;29;20491;-51
2022/03/12 04:47:50;;;;;;;16.37;8.43;;;1.40;99.90;;;;;;4894279;29;20570;-51
2022/03/12 04:50:17;;;;;;;15.83;7.80;;;1.30;99.90;;;;;;4894475;29;20453;-51
2022/03/12 04:52:44;;;;;;;18.57;8.50;;;1.40;99.90;;;;;;4894288;29;20435;-51
2022/03/12 04:55:12;;;;;;;11.83;7.20;;;1.30;99.90;;;;;;4894868;29;20504;-51
2022/03/12 04:57:39;;;;;;;13.10;7.90;;;1.30;99.90;;;;;;4894242;29;20531;-51
2022/03/12 05:00:17;;;;;;;16.93;8.03;;;1.30;99.90;;;;;;4894580;29;20807;-51
2022/03/12 05:02:45;;;;;;;15.40;8.37;;;1.20;99.90;;;;;;4894461;29;20756;-51
2022/03/12 05:05:12;;;;;;;16.30;7.40;;;1.20;99.90;;;;;;4893931;29;20810;-51
2022/03/12 05:07:43;;;;;;;14.50;7.73;;;1.20;99.90;;;;;;4894669;29;20432;-52
2022/03/12 05:10:10;;;;;;;14.17;8.17;;;1.20;99.90;;;;;;4891633;29;20430;-51
2022/03/12 05:12:36;;;;;;;14.57;7.73;;;1.20;99.90;;;;;;4894397;29;20443;-51
2022/03/12 05:15:03;;;;;;;16.70;8.33;;;1.20;99.90;;;;;;4894849;29;20507;-51
2022/03/12 05:17:32;;;;;;;14.30;8.47;;;1.10;99.90;;;;;;4894238;29;20487;-51
2022/03/12 05:19:57;;;;;;;15.67;7.87;;;1.10;99.90;;;;;;4894219;29;20440;-51
2022/03/12 05:22:23;;;;;;;16.50;8.10;;;1.10;99.90;;;;;;4893975;29;20950;-51
2022/03/12 05:24:49;;;;;;;18.70;8.53;;;1.10;99.90;;;;;;4894512;29;20215;-50
2022/03/12 05:27:16;;;;;;;14.53;8.20;;;1.10;99.90;;;;;;4894778;29;20247;-50
2022/03/12 05:29:46;;;;;;;16.10;8.80;;;1.00;99.90;;;;;;4894550;29;20819;-51
2022/03/12 05:32:13;;;;;;;17.60;8.17;;;1.00;99.90;;;;;;4894451;29;20985;-50
2022/03/12 05:34:39;;;;;;;15.70;7.60;;;1.00;99.90;;;;;;4894166;29;20487;-50
2022/03/12 05:37:08;;;;;;;16.53;9.30;;;1.00;99.90;;;;;;4894420;29;20895;-50
2022/03/12 05:39:34;;;;;;;11.60;7.30;;;1.00;99.90;;;;;;4894250;29;20432;-50
2022/03/12 05:42:05;;;;;;;12.80;7.87;;;1.00;99.90;;;;;;4894162;29;20443;-50
2022/03/12 05:44:33;;;;;;;16.40;7.70;;;0.90;99.90;;;;;;4894093;29;20471;-57
2022/03/12 05:46:58;;;;;;;16.67;8.47;;;0.90;99.90;;;;;;4890727;29;20483;-50
2022/03/12 05:49:24;;;;;;;13.93;7.53;;;0.90;99.90;;;;;;4894100;29;20432;-51
2022/03/12 05:51:49;;;;;;;17.87;7.40;;;1.00;99.90;;;;;;4893917;29;20283;-50
2022/03/12 05:54:15;;;;;;;15.00;8.77;;;1.00;99.90;;;;;;4894027;29;20180;-50
2022/03/12 05:56:41;;;;;;;13.47;7.53;;;1.00;99.90;;;;;;4894346;29;20195;-51
2022/03/12 05:59:07;;;;;;;15.90;8.90;;;0.90;99.90;;;;;;4893551;29;20195;-50
2022/03/12 06:01:33;;;;;;;11.30;7.50;;;0.90;99.90;;;;;;4893572;29;20471;-51
2022/03/12 06:04:00;;;;;;;12.10;7.50;;;0.90;99.90;;;;;;4894543;29;20531;-50
2022/03/12 06:06:30;;;;;;;14.57;8.03;;;0.90;99.90;;;;;;4897397;29;20431;-51
2022/03/12 06:08:57;;;;;;;13.63;7.73;;;0.90;99.90;;;;;;4897764;29;20428;-51
2022/03/12 06:11:25;;;;;;;22.63;7.40;;;0.90;99.90;;;;;;4897026;29;20545;-50
2022/03/12 06:13:59;;;;;;;15.17;7.87;;;0.90;99.90;;;;;;4897653;29;20439;-50
2022/03/12 06:16:25;;;;;;;27.27;9.17;;;1.00;99.90;;;;;;4894548;29;20448;-50
2022/03/12 06:18:52;;;;;;;12.33;6.90;;;1.00;99.90;;;;;;4897271;29;20918;-51
2022/03/12 06:21:18;;;;;;;17.60;8.00;;;1.00;99.90;;;;;;4897369;29;20198;-50
2022/03/12 06:23:43;;;;;;;12.90;6.47;;;1.00;99.90;;;;;;4897655;29;21145;-51
2022/03/12 06:26:12;;;;;;;12.60;7.30;;;1.00;99.90;;;;;;4897198;29;20918;-50
2022/03/12 06:28:38;;;;;;;11.73;7.00;;;1.10;99.90;;;;;;4893789;29;20206;-51
2022/03/12 06:31:03;;;;;;;12.50;7.93;;;1.10;99.90;;;;;;4897453;29;20518;-50
2022/03/12 06:33:30;;;;;;;13.73;7.17;;;1.30;99.90;;;;;;4897509;29;20199;-50
2022/03/12 06:35:57;;;;;;;14.27;7.27;;;1.30;99.90;;;;;;4897220;29;20440;-50
2022/03/12 06:38:24;;;;;;;16.20;7.73;;;1.30;99.90;;;;;;4897047;29;20527;-51
2022/03/12 06:40:55;;;;;;;15.17;7.73;;;1.50;99.90;;;;;;4896942;29;20883;-50
2022/03/12 06:43:21;;;;;;;13.77;7.70;;;1.70;99.90;;;;;;4896666;29;20463;-51
2022/03/12 06:45:49;;;;;;;12.07;7.20;;;1.80;99.90;;;;;;4897406;29;21058;-51
2022/03/12 06:48:16;;;;;;;14.17;7.77;;;1.90;99.90;;;;;;4897136;29;20192;-50
2022/03/12 06:50:42;;;;;;;12.87;7.80;;;1.90;99.90;;;;;;4894893;29;20464;-50
2022/03/12 06:53:07;;;;;;;15.63;7.43;;;1.90;99.90;;;;;;4896663;29;20428;-50
2022/03/12 06:55:33;;;;;;;12.70;7.30;;;2.00;99.90;;;;;;4879885;29;20515;-50
2022/03/12 06:57:59;;;;;;;15.87;6.53;;;2.20;99.90;;;;;;4896639;29;20260;-50
2022/03/12 07:00:27;;;;;;;17.00;7.87;;;2.20;99.90;;;;;;4896581;29;20195;-51
2022/03/12 07:02:53;;;;;;;14.83;7.20;;;2.30;99.90;;;;;;4896492;29;20252;-51
2022/03/12 07:05:19;;;;;;;16.10;7.83;;;2.30;99.90;;;;;;4896074;29;20436;-51
2022/03/12 07:07:45;;;;;;;14.83;7.20;;;2.30;99.90;;;;;;4896468;29;20817;-50
2022/03/12 07:10:10;;;;;;;10.70;6.60;;;2.40;99.90;;;;;;4896100;29;20454;-51
2022/03/12 07:12:38;;;;;;;12.43;7.40;;;2.50;99.90;;;;;;4879434;29;20203;-50
2022/03/12 07:15:05;;;;;;;14.20;7.50;;;2.70;99.90;;;;;;4895239;29;20223;-51
2022/03/12 07:17:31;;;;;;;15.10;7.77;;;2.80;99.90;;;;;;4896404;29;20420;-51
2022/03/12 07:19:57;;;;;;;13.50;7.70;;;3.00;99.90;;;;;;4896020;29;20436;-51
2022/03/12 07:22:22;;;;;;;11.80;7.50;;;3.30;99.90;;;;;;4896189;29;20846;-51
2022/03/12 07:24:48;;;;;;;13.60;7.90;;;3.90;99.90;;;;;;4896314;29;21012;-50
2022/03/12 07:27:14;;;;;;;13.83;8.07;;;4.40;99.90;;;;;;4896201;29;20216;-50
2022/03/12 07:29:39;;;;;;;14.50;7.30;;;4.80;99.90;;;;;;4896431;29;20583;-51
2022/03/12 07:32:06;;;;;;;16.97;8.10;;;5.30;99.90;;;;;;4896032;29;20191;-50
2022/03/12 07:34:31;;;;;;;12.13;8.03;;;5.60;99.90;;;;;;4895349;29;20256;-51
2022/03/12 07:36:56;;;;;;;14.53;7.90;;;5.80;99.90;;;;;;4896334;29;20808;-50
2022/03/12 07:39:22;;;;;;;10.63;7.17;;;6.10;99.90;;;;;;4896341;29;20195;-51
2022/03/12 07:41:48;;;;;;;13.13;6.90;;;6.40;99.90;;;;;;4896088;29;20188;-51
2022/03/12 07:44:13;;;;;;;12.57;7.10;;;6.80;99.90;;;;;;4895591;29;20739;-51
2022/03/12 07:46:39;;;;;;;12.27;7.60;;;7.10;99.90;;;;;;4896127;29;20564;-51
2022/03/12 07:49:04;;;;;;;12.40;6.73;;;7.30;99.90;;;;;;4895771;29;20262;-51
2022/03/12 07:51:31;;;;;;;12.57;7.00;;;7.40;99.90;;;;;;4896413;29;20280;-51
2022/03/12 07:53:58;;;;;;;11.80;7.53;;;7.80;99.90;;;;;;4879210;29;20202;-51
2022/03/12 07:56:24;;;;;;;13.50;7.17;;;7.60;99.90;;;;;;4895596;29;20443;-52
2022/03/12 07:58:49;;;;;;;11.40;6.67;;;7.90;99.90;;;;;;4895677;29;20448;-51
2022/03/12 08:01:15;;;;;;;12.73;7.50;;;8.10;99.90;;;;;;4894563;29;20200;-51
2022/03/12 08:03:41;;;;;;;16.43;6.43;;;8.60;99.90;;;;;;4895599;29;20219;-51
2022/03/12 08:06:08;;;;;;;12.07;7.60;;;9.30;99.90;;;;;;4895373;29;20440;-51
2022/03/12 08:08:34;;;;;;;15.20;7.47;;;9.70;99.90;;;;;;4894912;29;20585;-51
2022/03/12 08:13:44;;;;;;;11.13;7.33;;;9.80;99.90;;;;;;4894628;29;20471;-51
2022/03/12 08:16:13;;;;;;;10.27;6.40;;;9.90;99.90;;;;;;4895294;29;20461;-51
2022/03/12 08:18:39;;;;;;;11.57;6.90;;;9.60;99.90;;;;;;4895105;29;20439;-51
2022/03/12 08:21:05;;;;;;;13.83;7.90;;;9.80;99.90;;;;;;4894589;29;20443;-51
2022/03/12 08:23:31;;;;;;;14.00;7.70;;;9.70;99.90;;;;;;4895117;29;21063;-52
2022/03/12 08:25:57;;;;;;;12.07;6.80;;;9.20;99.90;;;;;;4878233;29;20212;-51
2022/03/12 08:28:23;;;;;;;10.80;6.93;;;8.60;99.90;;;;;;4894914;29;20447;-52
2022/03/12 08:30:50;;;;;;;13.40;7.33;;;7.90;99.90;;;;;;4895423;29;20828;-51
2022/03/12 08:33:17;;;;;;;14.57;7.00;;;7.40;99.90;;;;;;4895592;29;20499;-52
2022/03/12 08:35:42;;;;;;;12.87;7.37;;;7.00;99.90;;;;;;4886053;29;20429;-53
2022/03/12 08:38:08;;;;;;;11.87;7.07;;;6.40;99.90;;;;;;4894581;29;20428;-50
2022/03/12 08:40:35;;;;;;;10.80;6.67;;;6.20;99.90;;;;;;4890515;29;20188;-51
2022/03/12 08:43:00;;;;;;;15.30;7.07;;;6.10;99.90;;;;;;4889525;29;20267;-52
2022/03/12 08:45:26;;;;;;;12.77;7.63;;;5.90;99.90;;;;;;4886786;29;20436;-52
2022/03/12 08:47:51;;;;;;;16.63;6.90;;;5.90;99.90;;;;;;4893880;29;20184;-52
2022/03/12 08:50:19;;;;;;;11.47;7.10;;;6.00;99.90;;;;;;4884699;29;20207;-52
2022/03/12 08:52:45;;;;;;;12.20;7.17;;;6.00;99.90;;;;;;4887908;29;20183;-52
2022/03/12 08:55:12;;;;;;;11.80;7.03;;;6.10;99.90;;;;;;4886433;29;20939;-52
2022/03/12 08:57:38;;;;;;;13.53;7.17;;;6.00;99.90;;;;;;4894365;29;20206;-52
2022/03/12 09:00:06;;;;;;;12.80;6.70;;;5.90;99.90;;;;;;4895246;29;20539;-51
2022/03/12 09:02:33;;;;;;;12.23;6.57;;;5.90;99.90;;;;;;4891259;29;20436;-51
2022/03/12 09:05:00;;;;;;;12.00;6.60;;;5.70;99.90;;;;;;4891261;29;20464;-51
2022/03/12 09:07:26;;;;;;;12.03;7.37;;;5.80;99.90;;;;;;4894927;29;20446;-52
2022/03/12 09:09:53;;;;;;;13.33;7.53;;;6.00;99.90;;;;;;4894365;29;20448;-51
2022/03/12 09:12:18;;;;;;;12.17;7.37;;;6.10;99.90;;;;;;4894567;29;20176;-51
2022/03/12 09:14:44;;;;;;;10.77;6.87;;;6.50;99.90;;;;;;4890320;29;20435;-58
2022/03/12 09:17:09;;;;;;;11.40;6.50;;;6.80;99.90;;;;;;4877199;29;20210;-52
2022/03/12 09:19:35;;;;;;;12.50;6.90;;;7.20;99.90;;;;;;4892039;29;20299;-52
2022/03/12 09:22:02;;;;;;;10.03;6.43;;;7.60;99.90;;;;;;4887686;29;20183;-56
2022/03/12 09:24:28;;;;;;;11.53;6.63;;;8.40;99.90;;;;;;4894315;29;20202;-52
2022/03/12 09:26:54;;;;;;;12.77;7.13;;;8.90;99.90;;;;;;4894306;29;20919;-52
2022/03/12 09:29:20;;;;;;;15.80;6.83;;;8.90;99.90;;;;;;4891205;29;20452;-51
2022/03/12 09:31:45;;;;;;;10.13;6.67;;;9.00;99.90;;;;;;4888936;29;20188;-52
2022/03/12 09:34:11;;;;;;;11.70;7.20;;;9.00;99.90;;;;;;4889225;29;20249;-51
2022/03/12 09:36:37;;;;;;;13.83;6.13;;;8.80;99.90;;;;;;4887438;29;20196;-52
2022/03/12 09:39:05;;;;;;;9.57;6.13;;;8.90;99.90;;;;;;4896571;29;20208;-52
2022/03/12 09:41:31;;;;;;;13.67;6.57;;;9.20;99.90;;;;;;4894426;29;20219;-52
2022/03/12 09:43:57;;;;;;;10.63;5.90;;;9.40;99.90;;;;;;4889206;29;20974;-52
2022/03/12 09:46:22;;;;;;;17.07;6.90;;;9.30;99.90;;;;;;4886937;29;20180;-52
2022/03/12 09:48:48;;;;;;;15.97;7.60;;;9.10;99.90;;;;;;4891632;29;20500;-52
2022/03/12 09:51:14;;;;;;;10.90;7.40;;;9.00;99.90;;;;;;4895122;29;20694;-52
2022/03/12 09:53:40;;;;;;;10.17;6.67;;;9.10;99.90;;;;;;4897728;29;20258;-52
2022/03/12 09:56:06;;;;;;;12.40;7.20;;;9.20;99.90;;;;;;4892162;29;20551;-52
2022/03/12 09:58:31;;;;;;;10.60;6.47;;;9.10;99.90;;;;;;4889288;29;20627;-52
2022/03/12 10:00:57;;;;;;;14.50;7.00;;;9.10;99.90;;;;;;4886138;29;20184;-53
2022/03/12 10:03:23;;;;;;;10.73;7.17;;;8.90;99.90;;;;;;4875275;29;20215;-52
2022/03/12 10:05:49;;;;;;;11.33;7.13;;;8.90;99.90;;;;;;4889391;29;20196;-52
2022/03/12 10:08:16;;;;;;;14.43;6.20;;;8.90;99.90;;;;;;4893376;29;20294;-52
2022/03/12 10:10:42;;;;;;;8.37;5.93;;;8.80;99.90;;;;;;4892915;29;20440;-52
2022/03/12 10:13:07;;;;;;;9.67;6.50;;;8.70;99.90;;;;;;4897932;29;21102;-52
2022/03/12 10:15:33;;;;;;;12.80;7.13;;;8.90;99.90;;;;;;4865216;29;20203;-52
2022/03/12 10:18:00;;;;;;;10.93;6.93;;;9.00;99.90;;;;;;4895937;29;20591;-52
2022/03/12 10:20:25;;;;;;;13.97;6.60;;;9.10;99.90;;;;;;4896864;29;20435;-52
2022/03/12 10:22:52;;;;;;;14.80;7.20;;;9.40;99.90;;;;;;4895729;29;20444;-52
2022/03/12 10:25:17;;;;;;;11.33;6.53;;;9.80;99.90;;;;;;4897392;29;20263;-52
2022/03/12 10:27:43;;;;;;;11.80;7.30;;;9.70;99.90;;;;;;4896976;29;20963;-52
2022/03/12 10:30:10;;;;;;;14.43;7.23;;;10.00;99.90;;;;;;4897064;29;20737;-56
2022/03/12 10:32:44;;;;;;;12.23;7.27;;;10.10;99.90;;;;;;4894565;29;20187;-52
2022/03/12 10:35:12;;;;;;;12.53;7.10;;;10.20;99.90;;;;;;4894461;29;20598;-52
2022/03/12 10:37:38;;;;;;;17.03;6.90;;;10.20;99.90;;;;;;4897447;29;20431;-52
2022/03/12 10:40:16;;;;;;;11.80;6.60;;;10.20;99.90;;;;;;4891153;29;20425;-52
2022/03/12 10:42:57;;;;;;;11.73;6.80;;;10.40;99.90;;;;;;4894954;29;20527;-52
2022/03/12 10:45:29;;;;;;;12.70;6.93;;;10.90;99.90;;;;;;4896793;29;20435;-52
2022/03/12 10:47:57;;;;;;;11.67;6.93;;;10.90;99.90;;;;;;4896710;29;20436;-59
2022/03/12 10:50:25;;;;;;;10.13;7.10;;;11.00;99.90;;;;;;4892388;29;20467;-52
2022/03/12 10:52:53;;;;;;;13.20;7.50;;;11.20;99.90;;;;;;4896787;29;20428;-52
2022/03/12 10:55:29;;;;;;;10.87;7.00;;;11.90;99.90;;;;;;4896758;29;20428;-52
2022/03/12 10:58:21;;;;;;;9.57;6.77;;;12.80;99.90;;;;;;4896817;29;20424;-52
2022/03/12 11:00:49;;;;;;;15.63;7.57;;;13.50;99.90;;;;;;4894899;29;20514;-52
2022/03/12 11:03:20;;;;;;;11.93;7.03;;;13.60;99.90;;;;;;4896799;29;21747;-53
2022/03/12 11:05:46;;;;;;;18.33;7.20;;;14.00;99.90;;;;;;4895590;29;20444;-52
2022/03/12 11:08:16;;;;;;;10.33;6.80;;;14.80;99.90;;;;;;4885747;29;20601;-52
2022/03/12 11:10:52;;;;;;;14.03;8.70;;;15.50;99.90;;;;;;4893514;29;20428;-52
2022/03/12 11:13:42;;;;;;;9.70;6.53;;;16.00;99.90;;;;;;4889218;29;20444;-52
2022/03/12 11:16:24;;;;;;;14.03;8.00;;;15.90;99.90;;;;;;4891491;29;20432;-52
2022/03/12 11:18:52;;;;;;;17.70;6.67;;;16.10;99.90;;;;;;4886329;29;20488;-53
2022/03/12 11:21:43;;;;;;;9.77;7.10;;;16.20;99.90;;;;;;4891115;29;20420;-52
2022/03/12 11:24:16;;;;;;;14.87;8.07;;;16.00;99.90;;;;;;4888114;29;20460;-53
2022/03/12 11:26:49;;;;;;;19.50;7.67;;;16.50;99.90;;;;;;4892614;29;20428;-52
2022/03/12 11:29:17;;;;;;;10.70;7.87;;;17.30;99.90;;;;;;4895469;29;20452;-52
2022/03/12 11:31:51;;;;;;;69.07;8.67;;;17.60;99.90;;;;;;4896257;29;20458;-53
2022/03/12 11:34:32;;;;;;;11.27;7.63;;;17.90;99.90;;;;;;4895914;29;20499;-53
2022/03/12 11:37:13;;;;;;;10.37;7.23;;;17.70;99.90;;;;;;4893646;29;20519;-53
2022/03/12 11:39:50;;;;;;;11.37;7.30;;;17.50;99.90;;;;;;4891150;29;20435;-53
2022/03/12 11:42:23;;;;;;;11.10;6.90;;;17.30;99.90;;;;;;4892831;29;20545;-53
2022/03/12 11:44:54;;;;;;;12.30;7.70;;;17.30;99.90;;;;;;4892781;29;20472;-53
2022/03/12 11:47:22;;;;;;;10.37;7.80;;;17.50;99.90;;;;;;4895194;29;20958;-53
2022/03/12 11:49:49;;;;;;;8.70;6.60;;;17.80;99.90;;;;;;4887917;29;20459;-52
2022/03/12 11:52:16;;;;;;;12.93;7.07;;;17.60;99.90;;;;;;4893196;29;20416;-53
2022/03/12 11:54:43;;;;;;;17.57;7.33;;;18.00;99.90;;;;;;4893303;29;20440;-52
2022/03/12 11:57:11;;;;;;;11.70;7.57;;;18.40;99.90;;;;;;4895005;29;20473;-54
2022/03/12 11:59:38;;;;;;;15.27;7.70;;;18.40;99.90;;;;;;4895191;29;20424;-52
2022/03/12 12:02:17;;;;;;;11.47;7.50;;;18.10;99.90;;;;;;4894694;29;20435;-52
2022/03/12 12:04:43;;;;;;;13.10;7.60;;;17.90;99.90;;;;;;4893117;29;20497;-52
2022/03/12 12:07:09;;;;;;;10.50;7.93;;;18.10;99.90;;;;;;4895478;29;20444;-53
2022/03/12 12:09:35;;;;;;;9.30;6.77;;;17.00;99.90;;;;;;4895420;29;20926;-53
2022/03/12 12:12:03;;;;;;;20.63;8.37;;;16.70;99.90;;;;;;4895328;29;20475;-52
2022/03/12 12:14:29;;;;;;;11.83;7.50;;;17.00;99.90;;;;;;4895427;29;20168;-53
2022/03/12 12:16:59;;;;;;;17.70;8.40;;;17.80;99.90;;;;;;4895325;29;21179;-53
2022/03/12 12:19:26;;;;;;;13.00;7.80;;;18.20;99.90;;;;;;4895258;29;20184;-53
2022/03/12 12:21:52;;;;;;;14.73;7.83;;;18.40;99.90;;;;;;4895325;29;20431;-52
2022/03/12 12:24:32;;;;;;;14.13;7.27;;;18.10;99.90;;;;;;4890923;29;20475;-53
2022/03/12 12:27:07;;;;;;;11.60;7.53;;;17.80;99.90;;;;;;4889518;29;20183;-54
2022/03/12 12:29:54;;;;;;;15.00;7.40;;;17.90;99.90;;;;;;4891648;29;20787;-52
2022/03/12 12:32:24;;;;;;;15.07;8.53;;;18.30;99.90;;;;;;4895498;29;20431;-52
2022/03/12 12:35:17;;;;;;;13.10;8.03;;;18.40;99.90;;;;;;4894838;29;21189;-53
2022/03/12 12:37:44;;;;;;;10.00;7.40;;;18.90;99.90;;;;;;4888020;29;20914;-52
2022/03/12 12:40:49;;;;;;;16.00;7.70;;;18.80;99.90;;;;;;4895369;29;20420;-53
2022/03/12 12:43:23;;;;;;;9.03;7.07;;;18.80;99.90;;;;;;4889066;29;20865;-53
2022/03/12 12:45:51;;;;;;;10.97;7.57;;;19.00;99.90;;;;;;4890447;29;20447;-53
2022/03/12 12:48:20;;;;;;;24.67;7.50;;;19.20;99.90;;;;;;4893410;29;20505;-53
2022/03/12 12:51:15;;;;;;;8.70;7.30;;;19.50;99.90;;;;;;4889069;29;20930;-52